createdAt,value
2018-05-08T00:01:09.515Z,96737.25
2018-05-08T00:03:37.052Z,96737.68
2018-05-08T00:06:04.573Z,96734.30
2018-05-08T00:08:32.413Z,96733.88
2018-05-08T00:10:59.931Z,96734.31
2018-05-08T00:13:29.018Z,96725.39
2018-05-08T00:15:56.588Z,96724.13
2018-05-08T00:18:24.986Z,96721.17
2018-05-08T00:20:52.526Z,96715.64
2018-05-08T00:23:20.439Z,96716.91
2018-05-08T00:25:47.940Z,96714.41
2018-05-08T00:28:16.742Z,96711.42
2018-05-08T00:30:44.651Z,96712.72
2018-05-08T00:33:12.183Z,96703.38
2018-05-08T00:35:39.698Z,96705.95
2018-05-08T00:38:07.753Z,96706.81
2018-05-08T00:40:35.269Z,96704.30
2018-05-08T00:43:02.813Z,96704.31
2018-05-08T00:45:30.501Z,96698.80
2018-05-08T00:47:58.375Z,96697.13
2018-05-08T00:50:25.916Z,96690.77
2018-05-08T00:52:54.901Z,96686.11
2018-05-08T00:55:22.797Z,96686.99
2018-05-08T00:57:50.294Z,96685.30
2018-05-08T01:00:18.222Z,96685.77
2018-05-08T01:02:45.726Z,96687.50
2018-05-08T01:05:13.240Z,96679.45
2018-05-08T01:07:41.196Z,96685.44
2018-05-08T01:10:08.707Z,96682.49
2018-05-08T01:12:36.632Z,96686.30
2018-05-08T01:15:04.156Z,96686.77
2018-05-08T01:17:31.952Z,96686.77
2018-05-08T01:19:59.605Z,96682.11
2018-05-08T01:22:27.134Z,96690.22
2018-05-08T01:24:54.631Z,96684.68
2018-05-08T01:27:22.178Z,96683.00
2018-05-08T01:29:49.699Z,96681.73
2018-05-08T01:32:17.424Z,96680.94
2018-05-08T01:34:44.915Z,96681.41
2018-05-08T01:37:12.847Z,96675.48
2018-05-08T01:39:40.368Z,96670.86
2018-05-08T01:42:07.931Z,96670.02
2018-05-08T01:44:35.486Z,96663.67
2018-05-08T01:47:03.487Z,96668.38
2018-05-08T01:49:30.991Z,96662.03
2018-05-08T01:51:58.574Z,96660.34
2018-05-08T01:54:26.338Z,96657.81
2018-05-08T01:56:53.842Z,96656.57
2018-05-08T01:59:21.347Z,96658.73
2018-05-08T02:01:48.939Z,96652.80
2018-05-08T02:04:16.819Z,96649.44
2018-05-08T02:06:44.324Z,96651.16
2018-05-08T02:09:11.818Z,96650.73
2018-05-08T02:11:39.312Z,96643.52
2018-05-08T02:14:07.155Z,96637.16
2018-05-08T02:16:34.679Z,96641.84
2018-05-08T02:19:02.591Z,96630.81
2018-05-08T02:21:30.108Z,96634.66
2018-05-08T02:23:57.812Z,96630.42
2018-05-08T02:26:25.676Z,96634.27
2018-05-08T02:28:53.158Z,96633.45
2018-05-08T02:31:20.672Z,96633.88
2018-05-08T02:33:48.215Z,96637.73
2018-05-08T02:36:16.092Z,96630.52
2018-05-08T02:38:43.967Z,96626.72
2018-05-08T02:41:12.046Z,96627.16
2018-05-08T02:43:39.570Z,96622.06
2018-05-08T02:46:07.324Z,96620.38
2018-05-08T02:48:34.928Z,96620.41
2018-05-08T02:51:02.907Z,96622.55
2018-05-08T02:53:30.864Z,96618.70
2018-05-08T02:55:58.375Z,96624.23
2018-05-08T02:58:26.402Z,96623.40
2018-05-08T03:00:54.475Z,96620.86
2018-05-08T03:03:21.977Z,96623.01
2018-05-08T03:05:49.499Z,96623.87
2018-05-08T03:08:17.233Z,96614.97
2018-05-08T03:10:45.225Z,96613.69
2018-05-08T03:13:12.955Z,96621.32
2018-05-08T03:15:40.479Z,96617.95
2018-05-08T03:18:07.978Z,96620.51
2018-05-08T03:20:35.847Z,96620.94
2018-05-08T03:23:03.619Z,96617.55
2018-05-08T03:25:31.155Z,96612.91
2018-05-08T03:27:58.650Z,96604.86
2018-05-08T03:30:26.149Z,96608.24
2018-05-08T03:32:53.664Z,96606.97
2018-05-08T03:35:21.467Z,96617.58
2018-05-08T03:37:49.052Z,96609.95
2018-05-08T03:40:16.844Z,96615.47
2018-05-08T03:42:44.357Z,96610.38
2018-05-08T03:45:11.835Z,96608.69
2018-05-08T03:47:39.632Z,96608.27
2018-05-08T03:50:07.162Z,96608.27
2018-05-08T03:52:35.452Z,96610.39
2018-05-08T03:55:02.993Z,96606.59
2018-05-08T03:57:30.522Z,96611.69
2018-05-08T03:59:58.322Z,96618.04
2018-05-08T04:02:37.893Z,96617.20
2018-05-08T04:05:17.499Z,96613.80
2018-05-08T04:07:56.826Z,96620.16
2018-05-08T04:10:24.517Z,96618.47
2018-05-08T04:12:52.399Z,96615.52
2018-05-08T04:15:20.150Z,96617.63
2018-05-08T04:17:48.634Z,96615.52
2018-05-08T04:20:16.174Z,96612.95
2018-05-08T04:22:44.077Z,96604.48
2018-05-08T04:25:12.039Z,96605.31
2018-05-08T04:27:39.664Z,96612.09
2018-05-08T04:30:07.371Z,96614.20
2018-05-08T04:32:34.870Z,96603.59
2018-05-08T04:35:02.453Z,96604.00
2018-05-08T04:37:30.230Z,96597.20
2018-05-08T04:39:57.747Z,96598.85
2018-05-08T04:42:25.577Z,96595.88
2018-05-08T04:44:53.077Z,96596.27
2018-05-08T04:47:20.594Z,96595.00
2018-05-08T04:49:48.422Z,96595.83
2018-05-08T04:52:15.944Z,96589.83
2018-05-08T04:54:43.673Z,96590.26
2018-05-08T04:57:11.304Z,96590.23
2018-05-08T04:59:38.804Z,96589.34
2018-05-08T05:02:06.554Z,96588.46
2018-05-08T05:04:34.071Z,96581.66
2018-05-08T05:07:01.753Z,96583.73
2018-05-08T05:09:29.332Z,96585.41
2018-05-08T05:11:56.874Z,96587.48
2018-05-08T05:14:24.756Z,96589.16
2018-05-08T05:16:52.267Z,96590.83
2018-05-08T05:19:20.076Z,96591.17
2018-05-08T05:21:47.609Z,96583.47
2018-05-08T05:24:15.391Z,96581.29
2018-05-08T05:26:43.377Z,96592.28
2018-05-08T05:29:11.444Z,96586.30
2018-05-08T05:31:39.052Z,96580.28
2018-05-08T05:34:06.707Z,96584.03
2018-05-08T05:36:34.333Z,96586.07
2018-05-08T05:39:01.862Z,96585.96
2018-05-08T05:41:29.418Z,96584.20
2018-05-08T05:43:56.952Z,96584.95
2018-05-08T05:46:24.815Z,96576.39
2018-05-08T05:48:52.307Z,96577.19
2018-05-08T05:51:20.304Z,96576.65
2018-05-08T05:53:48.251Z,96578.74
2018-05-08T05:56:16.237Z,96575.22
2018-05-08T05:58:44.074Z,96578.95
2018-05-08T06:01:11.559Z,96578.43
2018-05-08T06:03:39.603Z,96577.48
2018-05-08T06:06:07.349Z,96581.27
2018-05-08T06:08:35.075Z,96579.92
2018-05-08T06:11:05.282Z,96576.42
2018-05-08T06:13:33.048Z,96576.72
2018-05-08T06:16:00.865Z,96576.59
2018-05-08T06:18:29.569Z,96579.50
2018-05-08T06:20:58.513Z,96572.15
2018-05-08T06:23:27.721Z,96583.15
2018-05-08T06:25:55.496Z,96577.44
2018-05-08T06:28:25.006Z,96576.91
2018-05-08T06:30:55.287Z,96573.72
2018-05-08T06:33:23.570Z,96566.77
2018-05-08T06:35:52.974Z,96577.70
2018-05-08T06:38:21.898Z,96568.11
2018-05-08T06:40:49.738Z,96568.83
2018-05-08T06:43:18.224Z,96574.22
2018-05-08T06:45:47.521Z,96573.59
2018-05-08T06:48:15.746Z,96575.09
2018-05-08T06:50:43.560Z,96566.06
2018-05-08T06:53:13.963Z,96571.15
2018-05-08T06:55:42.571Z,96567.73
2018-05-08T06:58:10.881Z,96565.14
2018-05-08T07:00:39.871Z,96556.45
2018-05-08T07:03:09.367Z,96558.27
2018-05-08T07:05:38.217Z,96553.23
2018-05-08T07:08:05.995Z,96565.73
2018-05-08T07:10:33.688Z,96556.91
2018-05-08T07:13:04.042Z,96557.69
2018-05-08T07:15:33.378Z,96545.14
2018-05-08T07:18:04.469Z,96543.73
2018-05-08T07:20:33.507Z,96547.49
2018-05-08T07:23:02.162Z,96542.70
2018-05-08T07:25:30.049Z,96545.77
2018-05-08T07:27:58.151Z,96541.11
2018-05-08T07:30:26.608Z,96537.59
2018-05-08T07:32:54.581Z,96534.84
2018-05-08T07:35:22.981Z,96542.33
2018-05-08T07:37:51.331Z,96538.66
2018-05-08T07:40:20.372Z,96549.03
2018-05-08T07:42:50.765Z,96551.37
2018-05-08T07:45:20.748Z,96553.45
2018-05-08T07:47:49.734Z,96550.37
2018-05-08T07:50:19.236Z,96544.66
2018-05-08T07:52:47.576Z,96543.84
2018-05-08T07:55:17.522Z,96548.40
2018-05-08T07:57:45.773Z,96548.63
2018-05-08T08:00:16.114Z,96549.33
2018-05-08T08:02:44.935Z,96549.33
2018-05-08T08:05:13.371Z,96543.34
2018-05-08T08:07:41.042Z,96540.89
2018-05-08T08:10:09.559Z,96538.17
2018-05-08T08:12:37.190Z,96538.45
2018-05-08T08:15:05.513Z,96530.05
2018-05-08T08:17:35.000Z,96530.04
2018-05-08T08:20:03.522Z,96529.12
2018-05-08T08:22:31.190Z,96526.34
2018-05-08T08:24:58.956Z,96526.13
2018-05-08T08:27:27.412Z,96522.23
2018-05-08T08:29:55.606Z,96518.83
2018-05-08T08:32:24.535Z,96523.84
2018-05-08T08:34:52.891Z,96517.17
2018-05-08T08:37:21.944Z,96519.59
2018-05-08T08:39:50.092Z,96523.49
2018-05-08T08:42:18.434Z,96525.30
2018-05-08T08:44:46.790Z,96519.88
2018-05-08T08:47:15.670Z,96517.05
2018-05-08T08:49:43.371Z,96523.19
2018-05-08T08:52:11.132Z,96518.03
2018-05-08T08:54:41.756Z,96510.63
2018-05-08T08:57:10.257Z,96510.50
2018-05-08T08:59:38.016Z,96511.20
2018-05-08T09:02:08.644Z,96510.45
2018-05-08T09:04:36.754Z,96512.30
2018-05-08T09:07:04.591Z,96510.87
2018-05-08T09:09:33.936Z,96505.30
2018-05-08T09:12:02.104Z,96502.23
2018-05-08T09:14:31.431Z,96497.69
2018-05-08T09:17:02.143Z,96494.02
2018-05-08T09:19:29.751Z,96502.77
2018-05-08T09:21:58.280Z,96488.16
2018-05-08T09:24:29.724Z,96497.94
2018-05-08T09:26:59.191Z,96495.94
2018-05-08T09:29:30.295Z,96491.38
2018-05-08T09:31:58.384Z,96480.72
2018-05-08T09:34:26.109Z,96479.97
2018-05-08T09:36:54.005Z,96479.56
2018-05-08T09:39:23.462Z,96469.91
2018-05-08T09:41:51.349Z,96469.28
2018-05-08T09:44:19.912Z,96466.05
2018-05-08T09:46:47.636Z,96470.11
2018-05-08T09:49:15.488Z,96472.11
2018-05-08T09:51:44.963Z,96458.88
2018-05-08T09:54:12.786Z,96461.36
2018-05-08T09:56:42.227Z,96459.81
2018-05-08T09:59:09.940Z,96457.02
2018-05-08T10:01:42.169Z,96457.73
2018-05-08T10:04:12.735Z,96452.76
2018-05-08T10:06:42.044Z,96452.62
2018-05-08T10:09:10.369Z,96454.33
2018-05-08T10:11:38.206Z,96449.01
2018-05-08T10:14:07.930Z,96444.77
2018-05-08T10:16:36.029Z,96443.69
2018-05-08T10:19:03.735Z,96445.84
2018-05-08T10:21:33.135Z,96434.63
2018-05-08T10:24:03.443Z,96432.65
2018-05-08T10:26:32.685Z,96430.94
2018-05-08T10:29:03.022Z,96436.08
2018-05-08T10:31:30.784Z,96421.58
2018-05-08T10:33:59.403Z,96424.12
2018-05-08T10:36:27.253Z,96423.06
2018-05-08T10:38:55.261Z,96416.70
2018-05-08T10:41:22.892Z,96420.15
2018-05-08T10:43:50.993Z,96402.67
2018-05-08T10:46:19.347Z,96405.91
2018-05-08T10:48:47.872Z,96404.66
2018-05-08T10:51:17.212Z,96410.83
2018-05-08T10:53:44.912Z,96392.67
2018-05-08T10:56:14.602Z,96384.97
2018-05-08T10:58:42.289Z,96383.02
2018-05-08T11:01:10.197Z,96367.94
2018-05-08T11:03:38.251Z,96369.33
2018-05-08T11:06:06.005Z,96370.91
2018-05-08T11:08:33.981Z,96369.28
2018-05-08T11:11:04.165Z,96362.98
2018-05-08T11:13:31.860Z,96365.99
2018-05-08T11:16:00.714Z,96359.95
2018-05-08T11:18:29.951Z,96357.20
2018-05-08T11:20:58.548Z,96352.80
2018-05-08T11:23:27.831Z,96346.98
2018-05-08T11:26:17.808Z,96341.75
2018-05-08T11:28:45.432Z,96350.63
2018-05-08T11:31:13.175Z,96336.19
2018-05-08T11:33:40.864Z,96330.66
2018-05-08T11:36:09.888Z,96326.06
2018-05-08T11:38:37.822Z,96329.32
2018-05-08T11:41:05.788Z,96332.68
2018-05-08T11:43:34.780Z,96316.89
2018-05-08T11:46:02.553Z,96318.72
2018-05-08T11:48:31.496Z,96311.08
2018-05-08T11:51:00.745Z,96310.10
2018-05-08T11:53:34.220Z,96313.67
2018-05-08T11:56:01.993Z,96315.27
2018-05-08T11:58:31.122Z,96321.06
2018-05-08T12:01:00.584Z,96305.95
2018-05-08T12:03:29.784Z,96302.16
2018-05-08T12:05:59.238Z,96300.92
2018-05-08T12:08:27.591Z,96295.99
2018-05-08T12:10:55.782Z,96302.63
2018-05-08T12:13:24.647Z,96293.89
2018-05-08T12:15:54.193Z,96292.31
2018-05-08T12:18:23.453Z,96290.52
2018-05-08T12:20:52.429Z,96286.64
2018-05-08T12:23:20.264Z,96286.75
2018-05-08T12:25:51.115Z,96281.03
2018-05-08T12:28:20.669Z,96284.52
2018-05-08T12:30:50.119Z,96280.17
2018-05-08T12:33:18.133Z,96277.00
2018-05-08T12:35:47.410Z,96276.68
2018-05-08T12:38:16.636Z,96274.69
2018-05-08T12:40:44.474Z,96270.95
2018-05-08T12:43:12.861Z,96270.25
2018-05-08T12:45:41.377Z,96271.19
2018-05-08T12:48:09.411Z,96270.03
2018-05-08T12:50:39.246Z,96267.14
2018-05-08T12:53:09.160Z,96265.13
2018-05-08T12:55:38.307Z,96261.50
2018-05-08T12:58:06.117Z,96263.38
2018-05-08T13:00:36.436Z,96255.08
2018-05-08T13:03:06.295Z,96243.72
2018-05-08T13:05:34.012Z,96238.95
2018-05-08T13:08:03.504Z,96241.80
2018-05-08T13:10:33.005Z,96232.93
2018-05-08T13:13:02.448Z,96236.27
2018-05-08T13:15:30.588Z,96229.13
2018-05-08T13:18:04.727Z,96243.88
2018-05-08T13:20:32.455Z,96231.59
2018-05-08T13:22:59.986Z,96234.64
2018-05-08T13:25:28.403Z,96230.83
2018-05-08T13:27:55.986Z,96233.16
2018-05-08T13:30:23.617Z,96235.16
2018-05-08T13:32:51.765Z,96230.03
2018-05-08T13:35:19.822Z,96225.23
2018-05-08T13:37:47.887Z,96226.17
2018-05-08T13:40:15.484Z,96227.49
2018-05-08T13:42:43.105Z,96211.92
2018-05-08T13:45:10.631Z,96213.06
2018-05-08T13:47:38.273Z,96219.09
2018-05-08T13:50:05.914Z,96214.28
2018-05-08T13:52:35.568Z,96212.13
2018-05-08T13:55:04.954Z,96214.19
2018-05-08T13:57:34.583Z,96210.82
2018-05-08T14:00:02.519Z,96205.19
2018-05-08T14:02:30.284Z,96211.81
2018-05-08T14:04:58.261Z,96206.11
2018-05-08T14:07:27.076Z,96195.16
2018-05-08T14:09:54.965Z,96200.63
2018-05-08T14:12:25.135Z,96192.87
2018-05-08T14:14:54.594Z,96187.27
2018-05-08T14:17:22.327Z,96181.73
2018-05-08T14:19:50.225Z,96178.39
2018-05-08T14:22:19.318Z,96170.37
2018-05-08T14:24:51.155Z,96169.88
2018-05-08T14:27:18.745Z,96167.61
2018-05-08T14:29:47.121Z,96159.28
2018-05-08T14:32:15.197Z,96161.86
2018-05-08T14:34:42.790Z,96166.15
2018-05-08T14:37:12.539Z,96163.41
2018-05-08T14:39:41.871Z,96160.61
2018-05-08T14:42:09.575Z,96150.14
2018-05-08T14:44:39.657Z,96147.05
2018-05-08T14:47:08.233Z,96147.30
2018-05-08T14:49:37.528Z,96146.36
2018-05-08T14:52:08.222Z,96151.84
2018-05-08T14:54:38.062Z,96159.86
2018-05-08T14:57:05.972Z,96155.22
2018-05-08T14:59:33.997Z,96159.26
2018-05-08T15:02:01.621Z,96159.76
2018-05-08T15:04:29.964Z,96149.61
2018-05-08T15:06:57.723Z,96147.80
2018-05-08T15:09:25.838Z,96154.64
2018-05-08T15:11:54.021Z,96148.11
2018-05-08T15:14:21.585Z,96152.04
2018-05-08T15:16:49.645Z,96148.75
2018-05-08T15:19:17.728Z,96145.50
2018-05-08T15:21:45.708Z,96148.08
2018-05-08T15:24:15.138Z,96143.73
2018-05-08T15:26:43.054Z,96141.08
2018-05-08T15:29:11.169Z,96132.62
2018-05-08T15:31:38.779Z,96130.05
2018-05-08T15:34:06.714Z,96122.89
2018-05-08T15:36:36.474Z,96122.67
2018-05-08T15:39:04.391Z,96120.00
2018-05-08T15:41:32.191Z,96116.38
2018-05-08T15:44:02.675Z,96115.92
2018-05-08T15:46:31.014Z,96116.59
2018-05-08T15:48:58.705Z,96117.43
2018-05-08T15:51:28.161Z,96115.72
2018-05-08T15:53:56.869Z,96116.08
2018-05-08T15:56:25.029Z,96112.56
2018-05-08T15:58:52.628Z,96113.84
2018-05-08T16:01:20.328Z,96106.02
2018-05-08T16:03:48.424Z,96105.52
2018-05-08T16:06:16.369Z,96097.59
2018-05-08T16:08:43.940Z,96100.98
2018-05-08T16:11:12.060Z,96108.08
2018-05-08T16:13:40.024Z,96099.59
2018-05-08T16:16:08.180Z,96092.77
2018-05-08T16:18:35.826Z,96097.33
2018-05-08T16:21:03.473Z,96093.77
2018-05-08T16:23:31.118Z,96096.73
2018-05-08T16:25:59.227Z,96096.44
2018-05-08T16:28:28.386Z,96094.48
2018-05-08T16:30:56.967Z,96091.86
2018-05-08T16:33:24.596Z,96094.07
2018-05-08T16:35:52.748Z,96096.33
2018-05-08T16:38:20.321Z,96093.50
2018-05-08T16:40:47.892Z,96095.48
2018-05-08T16:43:15.886Z,96091.64
2018-05-08T16:45:43.580Z,96089.66
2018-05-08T16:48:14.639Z,96095.77
2018-05-08T16:50:42.476Z,96092.66
2018-05-08T16:53:10.956Z,96109.38
2018-05-08T16:55:40.428Z,96105.11
2018-05-08T16:58:10.767Z,96106.44
2018-05-08T17:00:38.600Z,96106.17
2018-05-08T17:03:06.207Z,96105.29
2018-05-08T17:05:33.753Z,96103.14
2018-05-08T17:08:01.312Z,96108.34
2018-05-08T17:10:28.980Z,96103.79
2018-05-08T17:12:56.814Z,96106.49
2018-05-08T17:15:25.071Z,96103.05
2018-05-08T17:17:52.635Z,96100.72
2018-05-08T17:20:20.646Z,96099.80
2018-05-08T17:22:48.633Z,96105.28
2018-05-08T17:25:16.253Z,96105.87
2018-05-08T17:27:43.919Z,96110.31
2018-05-08T17:30:11.469Z,96106.10
2018-05-08T17:32:39.151Z,96110.38
2018-05-08T17:35:06.955Z,96115.69
2018-05-08T17:37:35.032Z,96116.02
2018-05-08T17:40:02.775Z,96117.53
2018-05-08T17:42:34.646Z,96118.00
2018-05-08T17:45:02.162Z,96123.27
2018-05-08T17:47:29.856Z,96124.92
2018-05-08T17:49:58.323Z,96121.26
2018-05-08T17:52:25.890Z,96122.00
2018-05-08T17:54:53.497Z,96121.92
2018-05-08T17:57:21.630Z,96117.70
2018-05-08T17:59:50.096Z,96114.09
2018-05-08T18:02:18.644Z,96108.01
2018-05-08T18:04:46.637Z,96116.39
2018-05-08T18:07:16.183Z,96120.08
2018-05-08T18:09:46.751Z,96128.87
2018-05-08T18:12:14.366Z,96121.13
2018-05-08T18:14:42.359Z,96129.54
2018-05-08T18:17:09.944Z,96135.17
2018-05-08T18:19:39.094Z,96139.67
2018-05-08T18:22:09.328Z,96142.99
2018-05-08T18:24:37.032Z,96145.30
2018-05-08T18:27:04.758Z,96149.67
2018-05-08T18:29:32.666Z,96151.72
2018-05-08T18:32:00.440Z,96153.30
2018-05-08T18:34:30.988Z,96158.72
2018-05-08T18:36:58.608Z,96154.23
2018-05-08T18:39:26.556Z,96150.71
2018-05-08T18:41:54.214Z,96153.33
2018-05-08T18:44:21.838Z,96155.70
2018-05-08T18:46:49.693Z,96167.21
2018-05-08T18:59:07.364Z,96170.91
2018-05-08T19:01:35.352Z,96170.98
2018-05-08T19:04:03.294Z,96178.58
2018-05-08T19:06:32.652Z,96176.59
2018-05-08T19:09:00.514Z,96180.22
2018-05-08T19:11:34.100Z,96182.21
2018-05-08T19:14:01.933Z,96185.44
2018-05-08T19:16:29.491Z,96188.20
2018-05-08T19:19:04.208Z,96188.44
2018-05-08T19:21:34.562Z,96183.54
2018-05-08T19:24:07.735Z,96195.20
2018-05-08T19:26:35.361Z,96190.27
2018-05-08T19:29:08.650Z,96184.34
2018-05-08T19:32:21.630Z,96188.05
2018-05-08T19:34:54.869Z,96190.39
2018-05-08T19:37:28.430Z,96188.39
2018-05-08T19:39:56.332Z,96190.36
2018-05-08T19:42:23.849Z,96191.36
2018-05-08T19:44:51.382Z,96188.13
2018-05-08T19:47:19.048Z,96185.38
2018-05-08T19:49:46.874Z,96191.16
2018-05-08T19:52:14.391Z,96182.23
2018-05-08T19:54:42.196Z,96184.80
2018-05-08T19:57:09.777Z,96187.80
2018-05-08T19:59:37.414Z,96179.77
2018-05-08T20:02:05.197Z,96179.17
2018-05-08T20:04:32.704Z,96186.64
2018-05-08T20:07:00.253Z,96177.41
2018-05-08T20:09:27.954Z,96167.69
2018-05-08T20:11:55.617Z,96163.52
2018-05-08T20:14:23.182Z,96165.38
2018-05-08T20:16:50.720Z,96161.28
2018-05-08T20:19:18.708Z,96160.13
2018-05-08T20:21:46.811Z,96155.91
2018-05-08T20:24:14.767Z,96160.80
2018-05-08T20:26:42.273Z,96161.00
2018-05-08T20:29:10.205Z,96168.95
2018-05-08T20:31:37.996Z,96164.66
2018-05-08T20:34:05.511Z,96163.43
2018-05-08T20:36:33.035Z,96172.27
2018-05-08T20:39:00.578Z,96172.13
2018-05-08T20:41:28.519Z,96169.80
2018-05-08T20:43:56.149Z,96169.56
2018-05-08T20:46:23.734Z,96158.17
2018-05-08T20:48:51.237Z,96159.14
2018-05-08T20:51:18.819Z,96159.31
2018-05-08T20:53:46.513Z,96156.93
2018-05-08T20:56:14.068Z,96161.84
2018-05-08T20:58:41.588Z,96155.59
2018-05-08T21:01:09.288Z,96157.90
2018-05-08T21:03:37.065Z,96155.93
2018-05-08T21:06:04.567Z,96152.70
2018-05-08T21:08:32.246Z,96152.04
2018-05-08T21:10:59.798Z,96159.95
2018-05-08T21:13:27.648Z,96157.64
2018-05-08T21:15:55.152Z,96160.41
2018-05-08T21:18:22.693Z,96156.28
2018-05-08T21:20:50.318Z,96159.37
2018-05-08T21:23:18.338Z,96147.05
2018-05-08T21:25:46.218Z,96151.75
2018-05-08T21:31:17.642Z,96155.75
2018-05-08T21:33:45.599Z,96151.09
2018-05-08T21:36:13.934Z,96153.28
2018-05-08T21:38:41.807Z,96155.84
2018-05-08T21:41:09.331Z,96149.92
2018-05-08T21:43:36.851Z,96144.36
2018-05-08T21:46:04.356Z,96147.83
2018-05-08T21:48:31.872Z,96145.27
2018-05-08T21:50:59.386Z,96146.59
2018-05-08T21:53:27.166Z,96147.52
2018-05-08T21:55:54.920Z,96153.12
2018-05-08T21:58:22.887Z,96155.45
2018-05-08T22:00:50.760Z,96152.14
2018-05-08T22:03:18.427Z,96151.38
2018-05-08T22:05:45.955Z,96157.50
2018-05-08T22:08:14.784Z,96154.13
2018-05-08T22:10:42.572Z,96151.11
2018-05-08T22:13:10.402Z,96145.55
2018-05-08T22:15:38.263Z,96148.97
2018-05-08T22:18:06.000Z,96152.01
2018-05-08T22:20:33.507Z,96150.35
2018-05-08T22:23:01.115Z,96155.56
2018-05-08T22:25:28.621Z,96148.35
2018-05-08T22:27:56.142Z,96148.83
2018-05-08T22:30:23.637Z,96151.06
2018-05-08T22:32:51.144Z,96153.72
2018-05-08T22:35:19.053Z,96142.67
2018-05-08T22:37:47.016Z,96147.05
2018-05-08T22:40:14.971Z,96148.94
2018-05-08T22:42:42.855Z,96148.27
2018-05-08T22:45:10.382Z,96145.44
2018-05-08T22:47:38.282Z,96145.14
2018-05-08T22:50:06.253Z,96135.86
2018-05-08T22:52:34.109Z,96135.14
2018-05-08T22:55:02.265Z,96135.23
2018-05-08T22:57:29.781Z,96134.05
2018-05-08T22:59:57.324Z,96135.84
2018-05-08T23:02:25.503Z,96131.23
2018-05-08T23:04:53.029Z,96131.32
2018-05-08T23:07:20.553Z,96136.53
2018-05-08T23:09:48.046Z,96131.88
2018-05-08T23:12:15.555Z,96130.18
2018-05-08T23:14:43.422Z,96125.48
2018-05-08T23:17:11.100Z,96126.39
2018-05-08T23:19:38.909Z,96129.46
2018-05-08T23:22:06.921Z,96123.62
2018-05-08T23:24:34.501Z,96129.67
2018-05-08T23:27:02.237Z,96125.11
2018-05-08T23:29:29.757Z,96129.42
2018-05-08T23:31:57.272Z,96127.33
2018-05-08T23:34:24.754Z,96128.69
2018-05-08T23:36:52.397Z,96125.23
2018-05-08T23:39:20.394Z,96124.34
2018-05-08T23:41:48.276Z,96126.95
2018-05-08T23:44:16.510Z,96124.44
2018-05-08T23:46:44.071Z,96118.46
2018-05-08T23:49:11.672Z,96119.36
2018-05-08T23:51:39.627Z,96118.55
2018-05-08T23:54:07.531Z,96119.45
2018-05-08T23:56:35.025Z,96116.59
2018-05-08T23:59:02.624Z,96113.77
